This is the latest recevied weather packets stored in our database for station/object W4EDL-13. If no packets are shown the sender has not sent any weather packets the latest 10 day(s).
| Time | Temp. | Humidity | Pressure | Rain* | Wind** | Luminosity | Snow |
|---|---|---|---|---|---|---|---|
| 1777927675 | 25.56° C | 52% | 1006.6 hPa | - | - | - | - |
| 1777927075 | 27.78° C | 49% | 1006.6 hPa | - | - | - | - |
| 1777926474 | 28.33° C | 47% | 1006.6 hPa | - | - | - | - |
| 1777925873 | 26.67° C | 49% | 1006.6 hPa | - | - | - | - |
| 1777925273 | 27.22° C | 49% | 1006.6 hPa | - | - | - | - |
| 1777924672 | 27.22° C | 47% | 1007.3 hPa | - | - | - | - |
| 1777924071 | 27.78° C | 49% | 1006.6 hPa | - | - | - | - |
| 1777923471 | 27.78° C | 47% | 1006.6 hPa | - | - | - | - |
| 1777922870 | 28.33° C | 46% | 1007.3 hPa | - | - | - | - |
| 1777922270 | 28.33° C | 47% | 1007.6 hPa | - | - | - | - |
| 1777921669 | 27.78° C | 49% | 1008 hPa | - | - | - | - |
| 1777921068 | 27.22° C | 48% | 1008 hPa | - | - | - | - |
| 1777920468 | 28.89° C | 47% | 1008.3 hPa | - | - | - | - |
| 1777919867 | 27.22° C | 49% | 1008.3 hPa | - | - | - | - |
| 1777919267 | 27.78° C | 47% | 1008 hPa | - | - | - | - |
| 1777918666 | 27.22° C | 50% | 1008.3 hPa | - | - | - | - |
| 1777918065 | 27.78° C | 48% | 1008 hPa | - | - | - | - |
| 1777917465 | 27.78° C | 47% | 1008.3 hPa | - | - | - | - |
| 1777916864 | 27.78° C | 49% | 1008.3 hPa | - | - | - | - |
| 1777916864 | 27.78° C | 49% | 1008.3 hPa | - | - | - | - |
| 1777916263 | 27.78° C | 48% | 1008.3 hPa | - | - | - | - |
| 1777915662 | 28.33° C | 48% | 1008.3 hPa | - | - | - | - |
| 1777915062 | 29.44° C | 45% | 1008.3 hPa | - | - | - | - |
| 1777914461 | 27.22° C | 49% | 1008.3 hPa | - | - | - | - |
| 1777913860 | 26.67° C | 51% | 1008.6 hPa | - | - | - | - |
* Rain since midnight (hover to see other rain measurements)
** Current wind speed in m/s (hover to see current wind gust speed)